sensor_id;sensor_type;location;lat;lon;timestamp;P1;durP1;ratioP1;P2;durP2;ratioP2
45354;SDS011;31091;48.758;9.150;2023-01-15T00:01:31;1.40;;;0.70;;
45354;SDS011;31091;48.758;9.150;2023-01-15T00:04:18;1.02;;;0.70;;
45354;SDS011;31091;48.758;9.150;2023-01-15T00:07:03;1.25;;;0.75;;
45354;SDS011;31091;48.758;9.150;2023-01-15T00:09:49;2.67;;;0.98;;
45354;SDS011;31091;48.758;9.150;2023-01-15T00:12:34;0.70;;;0.70;;
45354;SDS011;31091;48.758;9.150;2023-01-15T00:15:19;2.28;;;0.82;;
45354;SDS011;31091;48.758;9.150;2023-01-15T00:18:04;0.70;;;0.70;;
45354;SDS011;31091;48.758;9.150;2023-01-15T00:20:57;1.80;;;0.52;;
45354;SDS011;31091;48.758;9.150;2023-01-15T00:23:42;1.73;;;0.77;;
45354;SDS011;31091;48.758;9.150;2023-01-15T00:26:46;1.73;;;0.82;;
45354;SDS011;31091;48.758;9.150;2023-01-15T00:29:50;0.98;;;0.77;;
45354;SDS011;31091;48.758;9.150;2023-01-15T00:32:35;2.03;;;0.80;;
45354;SDS011;31091;48.758;9.150;2023-01-15T00:35:21;1.40;;;0.80;;
45354;SDS011;31091;48.758;9.150;2023-01-15T00:38:07;0.95;;;0.80;;
45354;SDS011;31091;48.758;9.150;2023-01-15T00:40:52;1.75;;;0.60;;
45354;SDS011;31091;48.758;9.150;2023-01-15T00:43:37;2.15;;;0.95;;
45354;SDS011;31091;48.758;9.150;2023-01-15T00:46:22;0.77;;;0.60;;
45354;SDS011;31091;48.758;9.150;2023-01-15T00:49:08;0.65;;;0.57;;
45354;SDS011;31091;48.758;9.150;2023-01-15T00:51:53;0.90;;;0.90;;
45354;SDS011;31091;48.758;9.150;2023-01-15T00:54:38;0.50;;;0.50;;
45354;SDS011;31091;48.758;9.150;2023-01-15T00:57:23;0.90;;;0.68;;
45354;SDS011;31091;48.758;9.150;2023-01-15T01:00:10;1.80;;;0.60;;
45354;SDS011;31091;48.758;9.150;2023-01-15T01:02:56;1.10;;;0.68;;
45354;SDS011;31091;48.758;9.150;2023-01-15T01:05:41;1.23;;;0.77;;
45354;SDS011;31091;48.758;9.150;2023-01-15T01:08:27;3.15;;;0.70;;
45354;SDS011;31091;48.758;9.150;2023-01-15T01:11:13;2.58;;;0.75;;
45354;SDS011;31091;48.758;9.150;2023-01-15T01:13:59;1.63;;;0.90;;
45354;SDS011;31091;48.758;9.150;2023-01-15T01:16:45;0.77;;;0.70;;
45354;SDS011;31091;48.758;9.150;2023-01-15T01:19:30;1.00;;;0.70;;
45354;SDS011;31091;48.758;9.150;2023-01-15T01:22:15;1.08;;;0.85;;
45354;SDS011;31091;48.758;9.150;2023-01-15T01:25:01;0.65;;;0.65;;
45354;SDS011;31091;48.758;9.150;2023-01-15T01:27:46;3.35;;;0.73;;
45354;SDS011;31091;48.758;9.150;2023-01-15T01:30:31;2.15;;;0.70;;
45354;SDS011;31091;48.758;9.150;2023-01-15T01:33:16;0.63;;;0.60;;
45354;SDS011;31091;48.758;9.150;2023-01-15T01:36:02;0.73;;;0.70;;
45354;SDS011;31091;48.758;9.150;2023-01-15T01:38:47;0.93;;;0.70;;
45354;SDS011;31091;48.758;9.150;2023-01-15T01:41:35;0.73;;;0.73;;
45354;SDS011;31091;48.758;9.150;2023-01-15T01:47:24;0.60;;;0.60;;
45354;SDS011;31091;48.758;9.150;2023-01-15T01:52:57;0.60;;;0.60;;
45354;SDS011;31091;48.758;9.150;2023-01-15T01:55:43;1.35;;;0.98;;
45354;SDS011;31091;48.758;9.150;2023-01-15T01:58:29;1.23;;;0.88;;
45354;SDS011;31091;48.758;9.150;2023-01-15T02:01:16;0.68;;;0.68;;
45354;SDS011;31091;48.758;9.150;2023-01-15T02:04:02;1.52;;;0.90;;
45354;SDS011;31091;48.758;9.150;2023-01-15T02:06:50;0.60;;;0.60;;
45354;SDS011;31091;48.758;9.150;2023-01-15T02:09:35;1.85;;;0.90;;
45354;SDS011;31091;48.758;9.150;2023-01-15T02:12:24;0.80;;;0.70;;
45354;SDS011;31091;48.758;9.150;2023-01-15T02:15:17;1.10;;;0.60;;
45354;SDS011;31091;48.758;9.150;2023-01-15T02:18:23;2.75;;;0.80;;
45354;SDS011;31091;48.758;9.150;2023-01-15T02:21:16;0.57;;;0.57;;
45354;SDS011;31091;48.758;9.150;2023-01-15T02:35:30;0.52;;;0.52;;
45354;SDS011;31091;48.758;9.150;2023-01-15T02:38:20;0.50;;;0.50;;
45354;SDS011;31091;48.758;9.150;2023-01-15T02:41:07;0.57;;;0.57;;
45354;SDS011;31091;48.758;9.150;2023-01-15T02:44:00;1.05;;;0.57;;
45354;SDS011;31091;48.758;9.150;2023-01-15T02:46:46;0.50;;;0.50;;
45354;SDS011;31091;48.758;9.150;2023-01-15T02:49:32;0.88;;;0.60;;
45354;SDS011;31091;48.758;9.150;2023-01-15T02:52:20;0.40;;;0.40;;
45354;SDS011;31091;48.758;9.150;2023-01-15T02:55:07;1.00;;;0.52;;
45354;SDS011;31091;48.758;9.150;2023-01-15T02:57:56;0.88;;;0.60;;
45354;SDS011;31091;48.758;9.150;2023-01-15T03:00:44;0.50;;;0.50;;
45354;SDS011;31091;48.758;9.150;2023-01-15T03:06:53;0.55;;;0.55;;
45354;SDS011;31091;48.758;9.150;2023-01-15T03:09:41;0.40;;;0.40;;
45354;SDS011;31091;48.758;9.150;2023-01-15T03:15:13;0.90;;;0.55;;
45354;SDS011;31091;48.758;9.150;2023-01-15T03:18:28;0.60;;;0.60;;
45354;SDS011;31091;48.758;9.150;2023-01-15T03:21:15;1.40;;;0.50;;
45354;SDS011;31091;48.758;9.150;2023-01-15T03:24:01;0.63;;;0.60;;
45354;SDS011;31091;48.758;9.150;2023-01-15T03:26:48;0.57;;;0.50;;
45354;SDS011;31091;48.758;9.150;2023-01-15T03:29:35;0.40;;;0.40;;
45354;SDS011;31091;48.758;9.150;2023-01-15T03:32:21;0.52;;;0.50;;
45354;SDS011;31091;48.758;9.150;2023-01-15T03:35:36;0.77;;;0.60;;
45354;SDS011;31091;48.758;9.150;2023-01-15T03:38:13;0.40;;;0.40;;
45354;SDS011;31091;48.758;9.150;2023-01-15T03:41:02;0.45;;;0.45;;
45354;SDS011;31091;48.758;9.150;2023-01-15T03:43:53;1.00;;;0.50;;
45354;SDS011;31091;48.758;9.150;2023-01-15T03:52:15;0.43;;;0.43;;
45354;SDS011;31091;48.758;9.150;2023-01-15T03:55:17;0.85;;;0.85;;
45354;SDS011;31091;48.758;9.150;2023-01-15T03:58:17;0.50;;;0.50;;
45354;SDS011;31091;48.758;9.150;2023-01-15T04:01:04;0.47;;;0.47;;
45354;SDS011;31091;48.758;9.150;2023-01-15T04:03:51;0.50;;;0.50;;
45354;SDS011;31091;48.758;9.150;2023-01-15T04:06:38;0.73;;;0.45;;
45354;SDS011;31091;48.758;9.150;2023-01-15T04:09:24;1.05;;;0.47;;
45354;SDS011;31091;48.758;9.150;2023-01-15T04:12:09;0.60;;;0.47;;
45354;SDS011;31091;48.758;9.150;2023-01-15T04:14:54;0.40;;;0.40;;
45354;SDS011;31091;48.758;9.150;2023-01-15T04:17:39;0.85;;;0.63;;
45354;SDS011;31091;48.758;9.150;2023-01-15T04:20:25;0.52;;;0.52;;
45354;SDS011;31091;48.758;9.150;2023-01-15T04:23:10;0.50;;;0.50;;
45354;SDS011;31091;48.758;9.150;2023-01-15T04:25:56;0.50;;;0.50;;
45354;SDS011;31091;48.758;9.150;2023-01-15T04:28:41;0.57;;;0.50;;
45354;SDS011;31091;48.758;9.150;2023-01-15T04:31:26;0.40;;;0.40;;
45354;SDS011;31091;48.758;9.150;2023-01-15T04:34:12;0.38;;;0.38;;
45354;SDS011;31091;48.758;9.150;2023-01-15T04:36:57;0.60;;;0.47;;
45354;SDS011;31091;48.758;9.150;2023-01-15T04:39:42;0.40;;;0.40;;
45354;SDS011;31091;48.758;9.150;2023-01-15T04:42:27;0.80;;;0.50;;
45354;SDS011;31091;48.758;9.150;2023-01-15T04:45:31;1.08;;;0.40;;
45354;SDS011;31091;48.758;9.150;2023-01-15T04:48:16;3.17;;;0.50;;
45354;SDS011;31091;48.758;9.150;2023-01-15T04:51:02;0.50;;;0.50;;
45354;SDS011;31091;48.758;9.150;2023-01-15T04:53:48;0.50;;;0.50;;
45354;SDS011;31091;48.758;9.150;2023-01-15T04:56:37;0.55;;;0.40;;
45354;SDS011;31091;48.758;9.150;2023-01-15T04:59:24;0.73;;;0.50;;
45354;SDS011;31091;48.758;9.150;2023-01-15T05:02:10;0.55;;;0.50;;
45354;SDS011;31091;48.758;9.150;2023-01-15T05:04:55;0.40;;;0.40;;
45354;SDS011;31091;48.758;9.150;2023-01-15T05:07:40;0.40;;;0.40;;
45354;SDS011;31091;48.758;9.150;2023-01-15T05:10:26;0.43;;;0.43;;
45354;SDS011;31091;48.758;9.150;2023-01-15T05:13:11;2.08;;;0.50;;
45354;SDS011;31091;48.758;9.150;2023-01-15T05:15:56;0.60;;;0.60;;
45354;SDS011;31091;48.758;9.150;2023-01-15T05:18:42;0.50;;;0.50;;
45354;SDS011;31091;48.758;9.150;2023-01-15T05:21:29;0.50;;;0.50;;
45354;SDS011;31091;48.758;9.150;2023-01-15T05:24:16;2.13;;;0.50;;
45354;SDS011;31091;48.758;9.150;2023-01-15T05:27:01;0.65;;;0.65;;
45354;SDS011;31091;48.758;9.150;2023-01-15T05:29:49;1.13;;;0.60;;
45354;SDS011;31091;48.758;9.150;2023-01-15T05:32:34;0.90;;;0.63;;
45354;SDS011;31091;48.758;9.150;2023-01-15T05:35:19;0.70;;;0.50;;
45354;SDS011;31091;48.758;9.150;2023-01-15T05:38:04;0.40;;;0.40;;
45354;SDS011;31091;48.758;9.150;2023-01-15T05:40:50;0.50;;;0.50;;
45354;SDS011;31091;48.758;9.150;2023-01-15T05:43:36;0.50;;;0.50;;
45354;SDS011;31091;48.758;9.150;2023-01-15T05:46:21;0.60;;;0.60;;
45354;SDS011;31091;48.758;9.150;2023-01-15T05:49:07;0.57;;;0.40;;
45354;SDS011;31091;48.758;9.150;2023-01-15T05:51:53;0.30;;;0.30;;
45354;SDS011;31091;48.758;9.150;2023-01-15T05:54:38;0.40;;;0.40;;
45354;SDS011;31091;48.758;9.150;2023-01-15T05:57:24;0.50;;;0.50;;
45354;SDS011;31091;48.758;9.150;2023-01-15T06:00:09;0.40;;;0.40;;
45354;SDS011;31091;48.758;9.150;2023-01-15T06:02:54;0.40;;;0.40;;
45354;SDS011;31091;48.758;9.150;2023-01-15T06:05:39;1.13;;;0.38;;
45354;SDS011;31091;48.758;9.150;2023-01-15T06:08:25;1.67;;;0.40;;
45354;SDS011;31091;48.758;9.150;2023-01-15T06:11:10;0.40;;;0.40;;
45354;SDS011;31091;48.758;9.150;2023-01-15T06:13:55;0.40;;;0.40;;
45354;SDS011;31091;48.758;9.150;2023-01-15T06:16:41;0.40;;;0.40;;
45354;SDS011;31091;48.758;9.150;2023-01-15T06:19:26;0.30;;;0.30;;
45354;SDS011;31091;48.758;9.150;2023-01-15T06:22:11;0.30;;;0.30;;
45354;SDS011;31091;48.758;9.150;2023-01-15T06:24:56;0.45;;;0.45;;
45354;SDS011;31091;48.758;9.150;2023-01-15T06:27:42;0.40;;;0.40;;
45354;SDS011;31091;48.758;9.150;2023-01-15T06:30:28;0.40;;;0.40;;
45354;SDS011;31091;48.758;9.150;2023-01-15T06:33:13;0.50;;;0.50;;
45354;SDS011;31091;48.758;9.150;2023-01-15T06:36:06;3.22;;;0.50;;
45354;SDS011;31091;48.758;9.150;2023-01-15T06:38:51;0.60;;;0.52;;
45354;SDS011;31091;48.758;9.150;2023-01-15T06:41:37;0.50;;;0.50;;
45354;SDS011;31091;48.758;9.150;2023-01-15T06:44:41;1.27;;;0.70;;
45354;SDS011;31091;48.758;9.150;2023-01-15T06:47:45;0.50;;;0.40;;
45354;SDS011;31091;48.758;9.150;2023-01-15T06:50:31;0.55;;;0.40;;
45354;SDS011;31091;48.758;9.150;2023-01-15T06:53:16;2.05;;;0.50;;
45354;SDS011;31091;48.758;9.150;2023-01-15T06:56:01;0.60;;;0.60;;
45354;SDS011;31091;48.758;9.150;2023-01-15T06:58:47;0.40;;;0.40;;
45354;SDS011;31091;48.758;9.150;2023-01-15T07:01:32;0.40;;;0.40;;
45354;SDS011;31091;48.758;9.150;2023-01-15T07:04:17;0.40;;;0.40;;
45354;SDS011;31091;48.758;9.150;2023-01-15T07:07:02;0.40;;;0.40;;
45354;SDS011;31091;48.758;9.150;2023-01-15T07:09:48;0.47;;;0.45;;
45354;SDS011;31091;48.758;9.150;2023-01-15T07:12:33;0.50;;;0.50;;
45354;SDS011;31091;48.758;9.150;2023-01-15T07:15:19;0.50;;;0.50;;
45354;SDS011;31091;48.758;9.150;2023-01-15T07:18:04;0.40;;;0.40;;
45354;SDS011;31091;48.758;9.150;2023-01-15T07:20:52;0.40;;;0.40;;
45354;SDS011;31091;48.758;9.150;2023-01-15T07:23:37;0.55;;;0.43;;
45354;SDS011;31091;48.758;9.150;2023-01-15T07:26:23;0.40;;;0.40;;
45354;SDS011;31091;48.758;9.150;2023-01-15T07:29:08;0.40;;;0.40;;
45354;SDS011;31091;48.758;9.150;2023-01-15T07:31:54;0.43;;;0.43;;
45354;SDS011;31091;48.758;9.150;2023-01-15T07:34:39;0.40;;;0.40;;
45354;SDS011;31091;48.758;9.150;2023-01-15T07:37:25;0.57;;;0.50;;
45354;SDS011;31091;48.758;9.150;2023-01-15T07:40:10;0.40;;;0.40;;
45354;SDS011;31091;48.758;9.150;2023-01-15T07:42:55;0.40;;;0.40;;
45354;SDS011;31091;48.758;9.150;2023-01-15T07:45:59;0.50;;;0.50;;
45354;SDS011;31091;48.758;9.150;2023-01-15T07:49:04;0.43;;;0.43;;
45354;SDS011;31091;48.758;9.150;2023-01-15T07:52:15;0.55;;;0.50;;
45354;SDS011;31091;48.758;9.150;2023-01-15T07:57:47;2.58;;;0.65;;
45354;SDS011;31091;48.758;9.150;2023-01-15T08:00:33;0.40;;;0.40;;
45354;SDS011;31091;48.758;9.150;2023-01-15T08:03:18;0.40;;;0.40;;
45354;SDS011;31091;48.758;9.150;2023-01-15T08:06:03;0.63;;;0.50;;
45354;SDS011;31091;48.758;9.150;2023-01-15T08:08:48;0.65;;;0.50;;
45354;SDS011;31091;48.758;9.150;2023-01-15T08:11:34;0.75;;;0.50;;
45354;SDS011;31091;48.758;9.150;2023-01-15T08:14:38;0.40;;;0.40;;
45354;SDS011;31091;48.758;9.150;2023-01-15T08:17:43;0.40;;;0.40;;
45354;SDS011;31091;48.758;9.150;2023-01-15T08:20:28;0.43;;;0.43;;
45354;SDS011;31091;48.758;9.150;2023-01-15T08:23:13;0.93;;;0.40;;
45354;SDS011;31091;48.758;9.150;2023-01-15T08:25:59;0.50;;;0.50;;
45354;SDS011;31091;48.758;9.150;2023-01-15T08:28:44;0.50;;;0.50;;
45354;SDS011;31091;48.758;9.150;2023-01-15T08:31:29;0.40;;;0.40;;
45354;SDS011;31091;48.758;9.150;2023-01-15T08:34:14;1.17;;;0.68;;
45354;SDS011;31091;48.758;9.150;2023-01-15T08:37:00;0.63;;;0.50;;
45354;SDS011;31091;48.758;9.150;2023-01-15T08:39:45;3.00;;;0.50;;
45354;SDS011;31091;48.758;9.150;2023-01-15T08:42:30;0.70;;;0.60;;
45354;SDS011;31091;48.758;9.150;2023-01-15T08:45:15;0.40;;;0.40;;
45354;SDS011;31091;48.758;9.150;2023-01-15T08:48:01;0.90;;;0.60;;
45354;SDS011;31091;48.758;9.150;2023-01-15T08:50:46;0.52;;;0.45;;
45354;SDS011;31091;48.758;9.150;2023-01-15T08:53:31;1.55;;;0.60;;
45354;SDS011;31091;48.758;9.150;2023-01-15T08:56:17;0.50;;;0.50;;
45354;SDS011;31091;48.758;9.150;2023-01-15T08:59:03;1.17;;;0.50;;
45354;SDS011;31091;48.758;9.150;2023-01-15T09:01:49;0.43;;;0.43;;
45354;SDS011;31091;48.758;9.150;2023-01-15T09:04:34;0.50;;;0.50;;
45354;SDS011;31091;48.758;9.150;2023-01-15T09:07:19;1.08;;;0.57;;
45354;SDS011;31091;48.758;9.150;2023-01-15T09:10:04;0.68;;;0.60;;
45354;SDS011;31091;48.758;9.150;2023-01-15T09:12:50;0.98;;;0.68;;
45354;SDS011;31091;48.758;9.150;2023-01-15T09:15:35;0.52;;;0.52;;
45354;SDS011;31091;48.758;9.150;2023-01-15T09:18:20;1.77;;;0.90;;
45354;SDS011;31091;48.758;9.150;2023-01-15T09:21:06;2.42;;;0.60;;
45354;SDS011;31091;48.758;9.150;2023-01-15T09:23:51;1.85;;;0.68;;
45354;SDS011;31091;48.758;9.150;2023-01-15T09:26:37;0.77;;;0.60;;
45354;SDS011;31091;48.758;9.150;2023-01-15T09:29:23;0.50;;;0.50;;
45354;SDS011;31091;48.758;9.150;2023-01-15T09:32:08;0.40;;;0.40;;
45354;SDS011;31091;48.758;9.150;2023-01-15T09:34:54;0.68;;;0.55;;
45354;SDS011;31091;48.758;9.150;2023-01-15T09:37:39;0.75;;;0.70;;
45354;SDS011;31091;48.758;9.150;2023-01-15T09:43:35;0.60;;;0.60;;
45354;SDS011;31091;48.758;9.150;2023-01-15T09:46:29;0.60;;;0.60;;
45354;SDS011;31091;48.758;9.150;2023-01-15T09:52:16;1.70;;;1.10;;
45354;SDS011;31091;48.758;9.150;2023-01-15T09:55:13;1.70;;;0.93;;
45354;SDS011;31091;48.758;9.150;2023-01-15T09:58:01;0.98;;;0.73;;
45354;SDS011;31091;48.758;9.150;2023-01-15T10:00:50;0.98;;;0.80;;
45354;SDS011;31091;48.758;9.150;2023-01-15T10:03:46;0.45;;;0.40;;
45354;SDS011;31091;48.758;9.150;2023-01-15T10:06:41;0.60;;;0.60;;
45354;SDS011;31091;48.758;9.150;2023-01-15T10:09:28;0.73;;;0.50;;
45354;SDS011;31091;48.758;9.150;2023-01-15T10:12:20;0.93;;;0.47;;
45354;SDS011;31091;48.758;9.150;2023-01-15T10:18:05;0.50;;;0.50;;
45354;SDS011;31091;48.758;9.150;2023-01-15T10:26:53;0.50;;;0.50;;
45354;SDS011;31091;48.758;9.150;2023-01-15T10:29:43;0.55;;;0.52;;
45354;SDS011;31091;48.758;9.150;2023-01-15T10:38:25;0.60;;;0.50;;
45354;SDS011;31091;48.758;9.150;2023-01-15T10:46:57;1.00;;;0.50;;
45354;SDS011;31091;48.758;9.150;2023-01-15T10:49:44;1.42;;;1.02;;
45354;SDS011;31091;48.758;9.150;2023-01-15T10:52:31;0.77;;;0.60;;
45354;SDS011;31091;48.758;9.150;2023-01-15T10:55:23;0.50;;;0.50;;
45354;SDS011;31091;48.758;9.150;2023-01-15T10:58:45;0.50;;;0.50;;
45354;SDS011;31091;48.758;9.150;2023-01-15T11:01:22;0.75;;;0.75;;
45354;SDS011;31091;48.758;9.150;2023-01-15T11:04:10;0.75;;;0.60;;
45354;SDS011;31091;48.758;9.150;2023-01-15T11:06:58;0.75;;;0.63;;
45354;SDS011;31091;48.758;9.150;2023-01-15T11:09:45;0.75;;;0.52;;
45354;SDS011;31091;48.758;9.150;2023-01-15T11:12:30;2.05;;;0.80;;
45354;SDS011;31091;48.758;9.150;2023-01-15T11:15:34;0.85;;;0.65;;
45354;SDS011;31091;48.758;9.150;2023-01-15T11:18:39;0.57;;;0.57;;
45354;SDS011;31091;48.758;9.150;2023-01-15T11:21:44;0.50;;;0.50;;
45354;SDS011;31091;48.758;9.150;2023-01-15T11:24:29;4.68;;;0.63;;
45354;SDS011;31091;48.758;9.150;2023-01-15T11:27:16;3.58;;;2.13;;
45354;SDS011;31091;48.758;9.150;2023-01-15T11:30:03;1.05;;;0.60;;
45354;SDS011;31091;48.758;9.150;2023-01-15T11:32:53;1.17;;;0.50;;
45354;SDS011;31091;48.758;9.150;2023-01-15T11:35:47;1.13;;;0.80;;
45354;SDS011;31091;48.758;9.150;2023-01-15T11:38:43;2.97;;;0.60;;
45354;SDS011;31091;48.758;9.150;2023-01-15T11:41:30;4.13;;;1.30;;
45354;SDS011;31091;48.758;9.150;2023-01-15T11:44:33;2.55;;;0.90;;
45354;SDS011;31091;48.758;9.150;2023-01-15T11:47:38;2.45;;;1.25;;
45354;SDS011;31091;48.758;9.150;2023-01-15T11:50:50;1.23;;;0.70;;
45354;SDS011;31091;48.758;9.150;2023-01-15T11:53:40;0.50;;;0.50;;
45354;SDS011;31091;48.758;9.150;2023-01-15T11:56:26;0.85;;;0.50;;
45354;SDS011;31091;48.758;9.150;2023-01-15T11:59:13;0.77;;;0.55;;
45354;SDS011;31091;48.758;9.150;2023-01-15T12:02:03;0.60;;;0.60;;
45354;SDS011;31091;48.758;9.150;2023-01-15T12:04:51;1.17;;;0.60;;
45354;SDS011;31091;48.758;9.150;2023-01-15T12:07:41;1.55;;;0.75;;
45354;SDS011;31091;48.758;9.150;2023-01-15T12:10:28;1.45;;;0.60;;
45354;SDS011;31091;48.758;9.150;2023-01-15T12:16:23;0.52;;;0.50;;
45354;SDS011;31091;48.758;9.150;2023-01-15T12:28:10;1.30;;;0.60;;
45354;SDS011;31091;48.758;9.150;2023-01-15T12:31:00;1.48;;;0.70;;
45354;SDS011;31091;48.758;9.150;2023-01-15T12:33:47;2.15;;;0.70;;
45354;SDS011;31091;48.758;9.150;2023-01-15T12:39:21;0.60;;;0.60;;
45354;SDS011;31091;48.758;9.150;2023-01-15T12:42:08;2.25;;;0.73;;
45354;SDS011;31091;48.758;9.150;2023-01-15T12:45:47;1.35;;;0.60;;
45354;SDS011;31091;48.758;9.150;2023-01-15T12:51:12;1.10;;;0.70;;
45354;SDS011;31091;48.758;9.150;2023-01-15T12:54:00;0.80;;;0.77;;
45354;SDS011;31091;48.758;9.150;2023-01-15T12:59:47;1.15;;;0.60;;
45354;SDS011;31091;48.758;9.150;2023-01-15T13:02:36;1.08;;;0.70;;
45354;SDS011;31091;48.758;9.150;2023-01-15T13:05:27;2.80;;;0.80;;
45354;SDS011;31091;48.758;9.150;2023-01-15T13:08:20;1.25;;;0.80;;
45354;SDS011;31091;48.758;9.150;2023-01-15T13:11:09;2.45;;;0.88;;
45354;SDS011;31091;48.758;9.150;2023-01-15T13:13:55;6.10;;;1.40;;
45354;SDS011;31091;48.758;9.150;2023-01-15T13:16:55;7.82;;;2.28;;
45354;SDS011;31091;48.758;9.150;2023-01-15T13:22:30;1.52;;;0.85;;
45354;SDS011;31091;48.758;9.150;2023-01-15T13:25:25;1.20;;;1.10;;
45354;SDS011;31091;48.758;9.150;2023-01-15T13:34:13;3.88;;;1.60;;
45354;SDS011;31091;48.758;9.150;2023-01-15T13:37:11;1.08;;;0.82;;
45354;SDS011;31091;48.758;9.150;2023-01-15T13:40:05;1.50;;;0.70;;
45354;SDS011;31091;48.758;9.150;2023-01-15T13:42:53;2.15;;;0.90;;
45354;SDS011;31091;48.758;9.150;2023-01-15T13:45:39;3.00;;;1.17;;
45354;SDS011;31091;48.758;9.150;2023-01-15T13:48:29;3.03;;;1.55;;
45354;SDS011;31091;48.758;9.150;2023-01-15T13:51:23;3.47;;;1.10;;
45354;SDS011;31091;48.758;9.150;2023-01-15T13:54:17;3.78;;;0.80;;
45354;SDS011;31091;48.758;9.150;2023-01-15T13:57:20;0.75;;;0.70;;
45354;SDS011;31091;48.758;9.150;2023-01-15T14:00:24;2.00;;;0.80;;
45354;SDS011;31091;48.758;9.150;2023-01-15T14:03:29;1.85;;;0.88;;
45354;SDS011;31091;48.758;9.150;2023-01-15T14:06:15;2.05;;;0.75;;
45354;SDS011;31091;48.758;9.150;2023-01-15T14:09:00;1.75;;;0.85;;
45354;SDS011;31091;48.758;9.150;2023-01-15T14:17:57;1.95;;;1.17;;
45354;SDS011;31091;48.758;9.150;2023-01-15T14:23:48;2.55;;;0.80;;
45354;SDS011;31091;48.758;9.150;2023-01-15T14:26:55;1.77;;;0.90;;
45354;SDS011;31091;48.758;9.150;2023-01-15T14:35:17;5.38;;;1.33;;
45354;SDS011;31091;48.758;9.150;2023-01-15T14:38:04;2.37;;;0.80;;
45354;SDS011;31091;48.758;9.150;2023-01-15T14:41:01;2.17;;;0.80;;
45354;SDS011;31091;48.758;9.150;2023-01-15T14:43:47;3.42;;;1.15;;
45354;SDS011;31091;48.758;9.150;2023-01-15T14:46:33;3.70;;;0.90;;
45354;SDS011;31091;48.758;9.150;2023-01-15T14:49:29;3.75;;;1.35;;
45354;SDS011;31091;48.758;9.150;2023-01-15T14:52:21;2.08;;;1.00;;
45354;SDS011;31091;48.758;9.150;2023-01-15T14:55:08;2.25;;;1.00;;
45354;SDS011;31091;48.758;9.150;2023-01-15T14:57:56;2.58;;;1.25;;
45354;SDS011;31091;48.758;9.150;2023-01-15T15:00:43;2.85;;;1.30;;
45354;SDS011;31091;48.758;9.150;2023-01-15T15:03:33;1.17;;;0.80;;
45354;SDS011;31091;48.758;9.150;2023-01-15T15:06:19;2.53;;;1.10;;
45354;SDS011;31091;48.758;9.150;2023-01-15T15:09:05;1.67;;;0.85;;
45354;SDS011;31091;48.758;9.150;2023-01-15T15:12:04;5.65;;;1.88;;
45354;SDS011;31091;48.758;9.150;2023-01-15T15:15:06;3.50;;;0.77;;
45354;SDS011;31091;48.758;9.150;2023-01-15T15:17:56;3.53;;;1.80;;
45354;SDS011;31091;48.758;9.150;2023-01-15T15:23:42;1.73;;;0.88;;
45354;SDS011;31091;48.758;9.150;2023-01-15T15:26:30;4.72;;;1.00;;
45354;SDS011;31091;48.758;9.150;2023-01-15T15:29:16;1.08;;;0.90;;
45354;SDS011;31091;48.758;9.150;2023-01-15T15:32:02;2.47;;;1.02;;
45354;SDS011;31091;48.758;9.150;2023-01-15T15:34:48;3.33;;;0.90;;
45354;SDS011;31091;48.758;9.150;2023-01-15T15:37:37;2.25;;;1.00;;
45354;SDS011;31091;48.758;9.150;2023-01-15T15:40:30;1.60;;;0.70;;
45354;SDS011;31091;48.758;9.150;2023-01-15T15:43:21;1.88;;;1.20;;
45354;SDS011;31091;48.758;9.150;2023-01-15T15:46:30;3.90;;;1.42;;
45354;SDS011;31091;48.758;9.150;2023-01-15T15:49:37;2.40;;;1.10;;
45354;SDS011;31091;48.758;9.150;2023-01-15T15:52:23;4.07;;;1.67;;
45354;SDS011;31091;48.758;9.150;2023-01-15T15:55:13;3.65;;;0.90;;
45354;SDS011;31091;48.758;9.150;2023-01-15T15:57:59;3.75;;;1.33;;
45354;SDS011;31091;48.758;9.150;2023-01-15T16:00:45;4.20;;;2.03;;
45354;SDS011;31091;48.758;9.150;2023-01-15T16:03:31;2.47;;;1.33;;
45354;SDS011;31091;48.758;9.150;2023-01-15T16:06:20;4.03;;;1.70;;
45354;SDS011;31091;48.758;9.150;2023-01-15T16:09:07;4.40;;;1.50;;
45354;SDS011;31091;48.758;9.150;2023-01-15T16:11:53;2.42;;;1.17;;
45354;SDS011;31091;48.758;9.150;2023-01-15T16:14:39;3.85;;;1.20;;
45354;SDS011;31091;48.758;9.150;2023-01-15T16:17:25;2.97;;;1.27;;
45354;SDS011;31091;48.758;9.150;2023-01-15T16:20:11;2.67;;;1.10;;
45354;SDS011;31091;48.758;9.150;2023-01-15T16:22:58;3.03;;;1.10;;
45354;SDS011;31091;48.758;9.150;2023-01-15T16:25:43;2.50;;;1.38;;
45354;SDS011;31091;48.758;9.150;2023-01-15T16:28:39;3.15;;;1.00;;
45354;SDS011;31091;48.758;9.150;2023-01-15T16:31:35;2.15;;;0.95;;
45354;SDS011;31091;48.758;9.150;2023-01-15T16:34:21;3.97;;;1.20;;
45354;SDS011;31091;48.758;9.150;2023-01-15T16:37:29;5.78;;;2.10;;
45354;SDS011;31091;48.758;9.150;2023-01-15T16:40:20;5.50;;;1.92;;
45354;SDS011;31091;48.758;9.150;2023-01-15T16:48:37;3.15;;;1.15;;
45354;SDS011;31091;48.758;9.150;2023-01-15T16:54:54;3.60;;;1.55;;
45354;SDS011;31091;48.758;9.150;2023-01-15T16:57:25;5.55;;;2.28;;
45354;SDS011;31091;48.758;9.150;2023-01-15T17:00:11;2.38;;;1.20;;
45354;SDS011;31091;48.758;9.150;2023-01-15T17:03:20;1.52;;;1.38;;
45354;SDS011;31091;48.758;9.150;2023-01-15T17:06:10;2.97;;;1.20;;
45354;SDS011;31091;48.758;9.150;2023-01-15T17:08:56;1.10;;;0.90;;
45354;SDS011;31091;48.758;9.150;2023-01-15T17:11:42;2.17;;;1.00;;
45354;SDS011;31091;48.758;9.150;2023-01-15T17:14:33;2.50;;;1.35;;
45354;SDS011;31091;48.758;9.150;2023-01-15T17:20:07;2.03;;;1.23;;
45354;SDS011;31091;48.758;9.150;2023-01-15T17:22:53;4.63;;;1.08;;
45354;SDS011;31091;48.758;9.150;2023-01-15T17:25:39;1.92;;;1.05;;
45354;SDS011;31091;48.758;9.150;2023-01-15T17:28:24;3.63;;;1.10;;
45354;SDS011;31091;48.758;9.150;2023-01-15T17:31:29;3.50;;;1.30;;
45354;SDS011;31091;48.758;9.150;2023-01-15T17:34:14;2.40;;;1.20;;
45354;SDS011;31091;48.758;9.150;2023-01-15T17:37:00;3.28;;;1.20;;
45354;SDS011;31091;48.758;9.150;2023-01-15T17:39:45;10.00;;;3.38;;
45354;SDS011;31091;48.758;9.150;2023-01-15T17:42:30;4.72;;;2.08;;
45354;SDS011;31091;48.758;9.150;2023-01-15T17:45:16;5.47;;;1.38;;
45354;SDS011;31091;48.758;9.150;2023-01-15T17:48:02;3.42;;;1.23;;
45354;SDS011;31091;48.758;9.150;2023-01-15T17:50:52;3.33;;;1.30;;
45354;SDS011;31091;48.758;9.150;2023-01-15T17:53:39;2.85;;;1.40;;
45354;SDS011;31091;48.758;9.150;2023-01-15T17:56:24;5.40;;;1.20;;
45354;SDS011;31091;48.758;9.150;2023-01-15T17:59:28;4.28;;;1.35;;
45354;SDS011;31091;48.758;9.150;2023-01-15T18:02:32;3.97;;;1.10;;
45354;SDS011;31091;48.758;9.150;2023-01-15T18:05:54;4.13;;;1.10;;
45354;SDS011;31091;48.758;9.150;2023-01-15T18:08:39;2.75;;;1.30;;
45354;SDS011;31091;48.758;9.150;2023-01-15T18:11:28;2.53;;;1.30;;
45354;SDS011;31091;48.758;9.150;2023-01-15T18:14:13;5.85;;;1.58;;
45354;SDS011;31091;48.758;9.150;2023-01-15T18:16:58;3.95;;;1.10;;
45354;SDS011;31091;48.758;9.150;2023-01-15T18:19:43;5.18;;;1.17;;
45354;SDS011;31091;48.758;9.150;2023-01-15T18:22:29;3.83;;;1.35;;
45354;SDS011;31091;48.758;9.150;2023-01-15T18:25:14;4.40;;;1.20;;
45354;SDS011;31091;48.758;9.150;2023-01-15T18:27:59;5.72;;;1.85;;
45354;SDS011;31091;48.758;9.150;2023-01-15T18:30:45;4.07;;;1.50;;
45354;SDS011;31091;48.758;9.150;2023-01-15T18:33:31;3.42;;;1.52;;
45354;SDS011;31091;48.758;9.150;2023-01-15T18:36:16;2.80;;;1.33;;
45354;SDS011;31091;48.758;9.150;2023-01-15T18:39:01;2.50;;;1.30;;
45354;SDS011;31091;48.758;9.150;2023-01-15T18:41:50;5.88;;;2.40;;
45354;SDS011;31091;48.758;9.150;2023-01-15T18:44:35;6.35;;;1.38;;
45354;SDS011;31091;48.758;9.150;2023-01-15T18:47:39;6.20;;;1.30;;
45354;SDS011;31091;48.758;9.150;2023-01-15T18:50:25;3.15;;;1.58;;
45354;SDS011;31091;48.758;9.150;2023-01-15T18:53:10;1.35;;;0.95;;
45354;SDS011;31091;48.758;9.150;2023-01-15T18:56:00;2.90;;;1.27;;